Time;durP1;ratioP1;P1;durP2;ratioP2;P2;SDS_P1;SDS_P2;PMS_P1;PMS_P2;Temp;Humidity;BMP_temperature;BMP_pressure;BME280_temperature;BME280_humidity;BME280_pressure;Samples;Min_cycle;Max_cycle;Signal;HPM_P1;HPM_P2
2023/04/16 00:00:47;;;;;;;10.05;7.85;;;;;;;8.63;100.00;100370.84;4985727;28;20348;-94
2023/04/16 00:03:17;;;;;;;11.32;8.02;;;;;;;8.79;100.00;100403.66;4993995;28;20046;-94
2023/04/16 00:05:46;;;;;;;11.90;8.25;;;;;;;8.65;100.00;100368.16;4986049;28;20042;-93
2023/04/16 00:08:25;;;;;;;11.70;7.90;;;;;;;8.94;100.00;100431.22;4975753;28;20046;-94
2023/04/16 00:10:53;;;;;;;12.52;8.73;;;;;;;8.56;100.00;100369.34;4988822;28;20113;-94
2023/04/16 00:13:30;;;;;;;10.55;8.00;;;;;;;8.54;100.00;100365.91;4961492;28;20058;-94
2023/04/16 00:16:02;;;;;;;12.73;8.30;;;;;;;8.53;100.00;100368.59;4998355;28;20062;-93
2023/04/16 00:18:31;;;;;;;12.02;8.40;;;;;;;8.34;100.00;100342.94;4978701;28;20094;-94
2023/04/16 00:21:06;;;;;;;11.35;8.05;;;;;;;8.87;100.00;100432.38;4986467;28;20447;-94
2023/04/16 00:23:38;;;;;;;11.63;7.80;;;;;;;8.29;100.00;100333.47;4975265;28;20074;-94
2023/04/16 00:26:07;;;;;;;11.82;8.45;;;;;;;8.68;100.00;100397.91;4984571;28;20073;-94
2023/04/16 00:28:36;;;;;;;13.63;7.70;;;;;;;8.66;100.00;100390.97;4969942;28;20636;-94
2023/04/16 00:31:05;;;;;;;10.90;7.28;;;;;;;8.65;100.00;100395.41;4986095;28;20057;-93
2023/04/16 00:33:35;;;;;;;11.68;7.15;;;;;;;8.72;100.00;100409.22;4969761;28;20049;-93
2023/04/16 00:36:06;;;;;;;10.60;7.28;;;;;;;8.90;100.00;100437.53;5009820;28;20057;-94
2023/04/16 00:38:43;;;;;;;11.73;8.27;;;;;;;8.85;100.00;100418.38;4986513;28;20046;-93
2023/04/16 00:41:12;;;;;;;;;;;;;;;8.94;100.00;100433.88;5004923;28;20046;-93
2023/04/16 00:43:41;;;;;;;11.10;7.25;;;;;;;8.89;100.00;100435.81;5006736;28;19941;-93
2023/04/16 00:46:10;;;;;;;9.98;7.28;;;;;;;8.64;100.00;100398.97;4995554;28;20042;-94
2023/04/16 00:49:01;;;;;;;9.80;7.03;;;;;;;8.96;100.00;100439.09;4991173;28;20113;-93
2023/04/16 00:51:42;;;;;;;10.52;7.35;;;;;;;8.93;100.00;100440.06;4987752;28;20039;-91
2023/04/16 00:54:10;;;;;;;10.00;7.40;;;;;;;8.97;100.00;100448.75;4951627;28;20034;-93
2023/04/16 00:56:38;;;;;;;11.77;8.13;;;;;;;8.97;100.00;100440.81;4978378;28;20043;-92
2023/04/16 00:59:12;;;;;;;11.60;8.38;;;;;;;8.76;100.00;100419.59;4964111;28;20038;-92
2023/04/16 01:01:39;;;;;;;11.32;8.40;;;;;;;8.94;100.00;100446.22;4991043;28;20057;-93
2023/04/16 01:04:06;;;;;;;10.70;7.90;;;;;;;9.01;100.00;100445.03;4968042;28;20074;-92
2023/04/16 01:06:36;;;;;;;11.70;8.00;;;;;;;8.79;100.00;100414.22;4964647;28;20050;-93
2023/04/16 01:09:07;;;;;;;13.15;8.48;;;;;;;8.76;100.00;100405.53;4978997;28;20078;-93
2023/04/16 01:11:36;;;;;;;11.73;7.82;;;;;;;8.95;100.00;100446.16;4978827;28;20042;-93
2023/04/16 01:14:07;;;;;;;10.40;7.97;;;;;;;8.93;100.00;100447.13;4964276;28;20043;-93
2023/04/16 01:16:35;;;;;;;11.82;8.38;;;;;;;8.90;100.00;100442.81;4983762;28;20039;-93
2023/04/16 01:19:04;;;;;;;10.93;8.07;;;;;;;8.86;100.00;100435.06;4964991;28;20047;-93
2023/04/16 01:21:35;;;;;;;11.88;8.30;;;;;;;8.88;100.00;100446.44;4958483;28;20047;-93
2023/04/16 01:24:05;;;;;;;10.50;7.68;;;;;;;8.47;100.00;100390.84;4951729;28;20065;-93
2023/04/16 01:26:33;;;;;;;8.93;7.22;;;;;;;8.49;100.00;100402.19;4979157;28;20066;-93
2023/04/16 01:29:15;;;;;;;10.98;7.85;;;;;;;8.48;100.00;100400.47;4967293;28;20431;-94
2023/04/16 01:31:45;;;;;;;12.45;8.63;;;;;;;8.85;100.00;100463.25;4975067;28;20074;-93
2023/04/16 01:34:22;;;;;;;11.18;7.80;;;;;;;8.74;100.00;100442.56;4962232;28;20039;-94
2023/04/16 01:36:51;;;;;;;11.57;8.23;;;;;;;8.88;100.00;100467.56;4977103;28;20121;-93
2023/04/16 01:39:34;;;;;;;11.63;8.23;;;;;;;8.87;100.00;100465.84;4973738;28;20039;-93
2023/04/16 01:42:14;;;;;;;13.73;8.60;;;;;;;8.60;100.00;100426.41;5005775;28;20039;-93
2023/04/16 01:44:50;;;;;;;13.77;8.60;;;;;;;8.65;100.00;100435.00;4981619;28;20047;-93
2023/04/16 01:47:18;;;;;;;11.43;8.60;;;;;;;8.30;100.00;100380.88;4976326;28;20098;-93
2023/04/16 01:49:50;;;;;;;11.32;8.38;;;;;;;8.84;100.00;100458.91;4969520;29;20050;-93
2023/04/16 01:52:22;;;;;;;13.90;9.38;;;;;;;8.96;100.00;100469.00;5002888;28;20082;-92
2023/04/16 01:54:53;;;;;;;13.02;8.65;;;;;;;8.95;100.00;100469.06;5013723;28;20045;-93
2023/04/16 01:57:29;;;;;;;11.85;8.43;;;;;;;8.94;100.00;100470.84;5006555;28;20042;-93
2023/04/16 01:59:58;;;;;;;12.32;8.90;;;;;;;8.90;100.00;100474.50;4986834;28;20056;-93
2023/04/16 02:02:29;;;;;;;12.40;8.57;;;;;;;8.78;100.00;100448.59;5009681;28;20093;-93
2023/04/16 02:04:56;;;;;;;11.63;8.40;;;;;;;8.90;100.00;100476.28;4961202;28;20114;-94
2023/04/16 02:07:26;;;;;;;11.73;8.77;;;;;;;8.78;100.00;100454.72;4989023;28;20041;-94
2023/04/16 02:09:59;;;;;;;12.82;8.55;;;;;;;8.83;100.00;100465.09;4991390;28;20074;-91
2023/04/16 02:12:28;;;;;;;12.52;9.00;;;;;;;8.76;100.00;100464.50;4999912;28;20036;-91
2023/04/16 02:14:56;;;;;;;11.05;8.93;;;;;;;8.89;100.00;100477.22;4965125;28;20039;-92
2023/04/16 02:17:24;;;;;;;11.25;8.80;;;;;;;8.90;100.00;100469.22;4980429;28;20043;-92
2023/04/16 02:19:51;;;;;;;12.82;8.85;;;;;;;8.76;100.00;100448.66;5007592;28;20158;-91
2023/04/16 02:22:32;;;;;;;12.10;8.23;;;;;;;9.01;100.00;100476.72;5023395;28;20041;-91
2023/04/16 02:24:59;;;;;;;13.85;9.50;;;;;;;8.97;100.00;100472.50;4998308;28;20048;-90
2023/04/16 02:27:30;;;;;;;12.48;8.50;;;;;;;8.78;100.00;100454.72;5017647;28;20031;-91
2023/04/16 02:30:05;;;;;;;11.95;8.70;;;;;;;8.89;100.00;100456.94;4991985;28;20043;-91
2023/04/16 02:32:33;;;;;;;13.15;9.02;;;;;;;8.75;100.00;100443.41;4983131;28;20038;-91
2023/04/16 02:35:02;;;;;;;11.50;8.63;;;;;;;8.99;100.00;100486.47;4987690;28;20046;-92
2023/04/16 02:37:30;;;;;;;11.87;8.27;;;;;;;8.99;100.00;100481.19;4987452;28;20093;-92
2023/04/16 02:40:02;;;;;;;;;;;;;;;8.95;100.00;100485.78;4999968;28;20073;-91
2023/04/16 02:42:37;;;;;;;12.75;9.05;;;;;;;8.75;100.00;100465.41;4982546;28;19918;-91
2023/04/16 02:45:04;;;;;;;13.00;9.45;;;;;;;8.99;100.00;100500.56;4994346;28;20046;-91
2023/04/16 02:47:32;;;;;;;13.55;9.05;;;;;;;8.88;100.00;100471.06;4995923;28;20039;-92
2023/04/16 02:50:01;;;;;;;13.05;9.70;;;;;;;9.00;100.00;100481.16;5006417;28;20073;-92
2023/04/16 02:52:31;;;;;;;11.48;8.95;;;;;;;9.02;100.00;100489.88;4987882;28;20061;-91
2023/04/16 02:54:58;;;;;;;12.05;8.68;;;;;;;9.16;100.00;100499.91;4971408;28;20111;-90
2023/04/16 02:57:25;;;;;;;14.32;9.68;;;;;;;8.97;100.00;100472.50;4979251;28;20062;-91
2023/04/16 03:00:08;;;;;;;12.45;8.80;;;;;;;9.19;100.00;100498.91;4992759;28;20039;-91
2023/04/16 03:02:35;;;;;;;12.10;9.35;;;;;;;9.11;100.00;100492.19;4981280;28;20043;-92
2023/04/16 03:05:02;;;;;;;14.00;8.85;;;;;;;9.22;100.00;100502.31;4981332;28;20039;-91
2023/04/16 03:07:29;;;;;;;14.68;10.07;;;;;;;9.00;100.00;100459.16;4990218;28;20078;-92
2023/04/16 03:10:05;;;;;;;14.65;9.35;;;;;;;9.24;100.00;100500.47;4999622;28;20038;-91
2023/04/16 03:12:56;;;;;;;12.68;9.48;;;;;;;9.25;100.00;100502.19;4986467;28;20132;-91
2023/04/16 03:15:26;;;;;;;13.07;9.82;;;;;;;9.20;100.00;100498.00;4972459;28;20031;-91
2023/04/16 03:18:00;;;;;;;10.70;8.75;;;;;;;9.15;100.00;100495.53;4982446;28;20034;-90
2023/04/16 03:20:27;;;;;;;13.88;10.05;;;;;;;9.08;100.00;100478.22;4980092;28;20066;-90
2023/04/16 03:22:58;;;;;;;12.35;9.30;;;;;;;9.27;100.00;100505.63;4980468;28;20130;-92
2023/04/16 03:25:28;;;;;;;14.32;9.90;;;;;;;9.07;100.00;100469.44;4964132;28;20089;-92
2023/04/16 03:28:15;;;;;;;14.30;9.40;;;;;;;9.32;100.00;100508.06;4991544;28;20070;-92
2023/04/16 03:30:53;;;;;;;15.18;9.45;;;;;;;9.30;100.00;100505.50;4960949;28;20098;-90
2023/04/16 03:33:22;;;;;;;13.43;9.32;;;;;;;9.32;100.00;100506.28;4993426;28;20026;-91
2023/04/16 03:35:57;;;;;;;12.77;9.43;;;;;;;9.24;100.00;100499.59;4963153;28;20052;-91
2023/04/16 03:38:25;;;;;;;16.00;10.35;;;;;;;9.36;100.00;100521.13;4958143;28;20042;-92
2023/04/16 03:40:56;;;;;;;13.48;9.88;;;;;;;9.34;100.00;100512.38;4965772;28;20051;-92
2023/04/16 03:43:39;;;;;;;14.70;9.85;;;;;;;9.39;100.00;100526.28;4961311;28;20051;-91
2023/04/16 03:46:08;;;;;;;14.77;9.95;;;;;;;9.38;100.00;100518.41;4963911;28;20129;-92
2023/04/16 03:48:50;;;;;;;12.57;9.30;;;;;;;9.43;100.00;100521.75;4959797;28;20416;-92
2023/04/16 03:51:17;;;;;;;14.90;10.15;;;;;;;9.44;100.00;100524.28;4962981;28;20479;-92
2023/04/16 03:53:58;;;;;;;14.90;12.90;;;;;;;9.44;100.00;100524.28;4972756;28;20101;-91
2023/04/16 03:56:40;;;;;;;14.55;10.32;;;;;;;9.24;100.00;100487.25;4968643;28;20050;-90
2023/04/16 03:59:12;;;;;;;14.55;10.30;;;;;;;9.42;100.00;100515.59;4999169;28;20043;-92
2023/04/16 04:01:40;;;;;;;14.00;10.13;;;;;;;9.38;100.00;100523.69;4998562;28;20045;-91
2023/04/16 04:04:11;;;;;;;16.08;10.82;;;;;;;9.32;100.00;100506.28;4972083;28;20046;-90
2023/04/16 04:06:38;;;;;;;15.27;11.10;;;;;;;9.36;100.00;100513.19;4977927;28;20038;-92
2023/04/16 04:09:20;;;;;;;14.98;10.70;;;;;;;9.27;100.00;100520.63;4987606;28;20045;-91
2023/04/16 04:11:46;;;;;;;14.15;10.43;;;;;;;9.21;100.00;100519.09;4972589;28;20038;-91
2023/04/16 04:14:14;;;;;;;14.30;10.15;;;;;;;9.15;100.00;100517.53;4983923;28;20055;-92
2023/04/16 04:16:43;;;;;;;14.10;10.30;;;;;;;9.09;100.00;100512.50;4954364;28;20047;-93
2023/04/16 04:19:12;;;;;;;14.52;10.10;;;;;;;9.14;100.00;100530.78;5014099;28;20050;-92
2023/04/16 04:21:39;;;;;;;16.02;10.48;;;;;;;9.07;100.00;100516.13;4987340;28;20048;-92
2023/04/16 04:24:09;;;;;;;15.20;10.38;;;;;;;9.13;100.00;100529.06;4991293;28;20045;-92
2023/04/16 04:26:36;;;;;;;15.15;10.13;;;;;;;9.15;100.00;100522.81;4991748;28;20049;-92
2023/04/16 04:29:05;;;;;;;13.82;9.95;;;;;;;9.10;100.00;100522.16;4988653;28;20027;-93
2023/04/16 04:31:33;;;;;;;13.48;9.73;;;;;;;9.04;100.00;100513.59;4983555;28;20050;-92
2023/04/16 04:34:00;;;;;;;17.10;10.40;;;;;;;9.06;100.00;100519.69;4997210;28;20042;-92
2023/04/16 04:36:28;;;;;;;14.23;9.70;;;;;;;9.14;100.00;100536.06;4989045;28;20046;-93
2023/04/16 04:38:58;;;;;;;16.50;10.13;;;;;;;9.07;100.00;100521.41;5012519;28;20042;-94
2023/04/16 04:41:27;;;;;;;12.82;9.70;;;;;;;9.12;100.00;100528.25;4990854;28;20066;-92
2023/04/16 04:43:59;;;;;;;12.95;9.32;;;;;;;9.11;100.00;100531.81;5003308;28;20046;-93
2023/04/16 04:46:49;;;;;;;13.43;9.23;;;;;;;9.08;100.00;100529.28;4977310;28;20045;-92
2023/04/16 04:49:33;;;;;;;12.02;9.20;;;;;;;9.08;100.00;100531.91;4988967;28;20117;-91
2023/04/16 04:52:07;;;;;;;15.95;9.50;;;;;;;9.10;100.00;100540.66;4987661;28;20076;-92
2023/04/16 04:54:51;;;;;;;13.93;9.35;;;;;;;8.96;100.00;100519.19;4991329;28;20030;-93
2023/04/16 04:57:33;;;;;;;11.93;8.80;;;;;;;9.11;100.00;100541.50;4991359;28;20077;-92
2023/04/16 05:00:03;;;;;;;13.07;9.25;;;;;;;9.05;100.00;100532.03;4999074;28;20105;-92
2023/04/16 05:02:44;;;;;;;12.48;9.27;;;;;;;8.96;100.00;100519.19;5007716;28;20141;-91
2023/04/16 05:05:12;;;;;;;12.18;8.93;;;;;;;9.15;100.00;100548.38;5006776;28;20133;-93
2023/04/16 05:07:41;;;;;;;11.98;8.52;;;;;;;9.11;100.00;100544.16;5007484;28;20112;-92
2023/04/16 05:10:23;;;;;;;11.57;7.68;;;;;;;9.20;100.00;100556.13;5009590;28;20121;-92
2023/04/16 05:13:05;;;;;;;12.73;7.70;;;;;;;9.18;100.00;100545.63;4992694;28;20042;-92
2023/04/16 05:15:39;;;;;;;10.82;7.55;;;;;;;9.21;100.00;100547.28;4974275;28;20058;-92
2023/04/16 05:18:13;;;;;;;10.68;7.10;;;;;;;9.31;100.00;100557.44;4983713;28;20054;-91
2023/04/16 05:20:46;;;;;;;11.73;8.05;;;;;;;9.34;100.00;100559.94;4981949;28;20114;-92
2023/04/16 05:23:21;;;;;;;11.13;7.82;;;;;;;9.14;100.00;100530.78;4976398;28;20062;-93
2023/04/16 05:25:52;;;;;;;10.68;7.65;;;;;;;9.35;100.00;100564.31;4983171;28;20083;-92
2023/04/16 05:28:25;;;;;;;10.35;7.32;;;;;;;9.20;100.00;100535.84;4982513;28;20050;-93
2023/04/16 05:30:57;;;;;;;10.85;7.25;;;;;;;9.32;100.00;100551.22;4978814;28;20042;-92
2023/04/16 05:33:25;;;;;;;9.45;7.20;;;;;;;9.20;100.00;100541.13;4983177;28;20503;-93
2023/04/16 05:35:56;;;;;;;10.55;7.65;;;;;;;9.45;100.00;100572.75;4976061;28;20047;-92
2023/04/16 05:38:24;;;;;;;11.30;8.07;;;;;;;9.45;100.00;100580.66;4976552;28;20199;-92
2023/04/16 05:40:51;;;;;;;11.02;7.47;;;;;;;9.44;100.00;100582.44;4973474;28;20100;-92
2023/04/16 05:43:24;;;;;;;11.50;8.27;;;;;;;9.35;100.00;100577.53;4973407;28;20530;-92
2023/04/16 05:45:52;;;;;;;10.50;7.35;;;;;;;9.40;100.00;100580.88;5000304;28;20050;-90
2023/04/16 05:48:40;;;;;;;10.27;7.82;;;;;;;9.36;100.00;100575.75;4962051;28;20038;-92
2023/04/16 05:51:09;;;;;;;14.32;8.60;;;;;;;9.15;100.00;100543.09;4994679;28;20042;-92
2023/04/16 05:53:41;;;;;;;12.45;8.30;;;;;;;9.32;100.00;100577.66;4992935;28;20122;-93
2023/04/16 05:56:12;;;;;;;12.20;8.23;;;;;;;9.44;100.00;100597.47;4958692;28;20039;-91
2023/04/16 05:58:51;;;;;;;12.43;8.68;;;;;;;9.45;100.00;100600.03;4995521;28;20706;-92
2023/04/16 06:01:33;;;;;;;12.27;7.53;;;;;;;9.41;100.00;100592.31;4989042;28;20038;-92
2023/04/16 06:04:04;;;;;;;12.63;7.75;;;;;;;9.47;100.00;100600.84;5022529;28;20049;-93
2023/04/16 06:06:32;;;;;;;13.02;8.35;;;;;;;9.45;100.00;100589.47;4987957;28;20042;-92
2023/04/16 06:09:03;;;;;;;;;;;;;;;9.57;100.00;100596.06;4993366;28;20604;-91
2023/04/16 06:11:30;;;;;;;12.60;8.38;;;;;;;9.53;100.00;100593.59;4987313;28;19918;-90
2023/04/16 06:14:01;;;;;;;12.23;8.45;;;;;;;9.45;100.00;100585.94;5000774;28;20050;-90
2023/04/16 06:16:28;;;;;;;11.60;7.85;;;;;;;9.44;100.00;100603.59;5000085;28;20044;-91
2023/04/16 06:18:55;;;;;;;11.15;8.35;;;;;;;9.40;100.00;100607.31;5006198;28;20050;-92
2023/04/16 06:21:44;;;;;;;13.10;8.38;;;;;;;9.34;100.00;100602.25;4979534;28;20118;-90
2023/04/16 06:24:14;;;;;;;11.00;8.23;;;;;;;9.37;100.00;100601.25;5012036;28;20085;-92
2023/04/16 06:26:48;;;;;;;11.50;8.00;;;;;;;9.34;100.00;100598.72;4999058;28;20503;-91
2023/04/16 06:29:16;;;;;;;11.82;7.80;;;;;;;9.32;100.00;100603.22;4970124;28;20042;-92
2023/04/16 06:31:52;;;;;;;10.18;7.45;;;;;;;9.33;100.00;100604.94;4981792;28;20080;-89
2023/04/16 06:34:21;;;;;;;10.17;7.67;;;;;;;9.07;100.00;100561.03;4998708;28;20048;-93
2023/04/16 06:37:01;;;;;;;12.15;7.75;;;;;;;9.28;100.00;100607.78;5001677;28;20472;-93
2023/04/16 06:39:30;;;;;;;11.20;7.80;;;;;;;9.15;100.00;100595.94;5015195;28;20130;-89
2023/04/16 06:41:59;;;;;;;10.23;7.13;;;;;;;9.17;100.00;100611.72;4996271;28;20118;-88
2023/04/16 06:44:28;;;;;;;;;;;;;;;9.15;100.00;100614.41;4979133;28;20126;-89
2023/04/16 06:46:58;;;;;;;13.60;8.35;;;;;;;9.14;100.00;100613.56;4990166;28;19936;-88
2023/04/16 06:49:28;;;;;;;11.93;7.88;;;;;;;9.10;100.00;100608.47;4992467;28;20054;-87
2023/04/16 06:52:02;;;;;;;9.40;6.68;;;;;;;9.17;100.00;100617.88;4988821;28;20058;-86
2023/04/16 06:54:34;;;;;;;;;;;;;;;9.13;100.00;100619.75;4984045;28;20050;-87
2023/04/16 06:57:05;;;;;;;10.45;7.07;;;;;;;9.01;100.00;100603.50;4966053;28;19918;-89
2023/04/16 06:59:35;;;;;;;10.27;6.95;;;;;;;9.07;100.00;100621.78;4977854;28;20051;-90
2023/04/16 07:02:03;;;;;;;9.10;6.28;;;;;;;9.04;100.00;100624.53;5000416;28;20046;-90
2023/04/16 07:04:51;;;;;;;10.25;7.03;;;;;;;8.93;100.00;100609.09;4992794;28;20041;-89
2023/04/16 07:07:32;;;;;;;8.88;7.20;;;;;;;8.97;100.00;100618.59;4987252;28;20045;-89
2023/04/16 07:10:00;;;;;;;9.65;6.78;;;;;;;9.01;100.00;100635.22;4978349;28;20102;-90
2023/04/16 07:12:43;;;;;;;11.27;7.25;;;;;;;9.00;100.00;100638.75;4978319;28;20042;-90
2023/04/16 07:15:35;;;;;;;10.50;6.97;;;;;;;8.99;100.00;100629.13;4934431;29;20074;-89
2023/04/16 07:18:22;;;;;;;11.40;7.80;;;;;;;9.00;100.00;100629.06;4946578;29;20074;-90
2023/04/16 07:21:03;;;;;;;10.05;7.10;;;;;;;9.08;100.00;100644.66;4948212;29;20066;-91
2023/04/16 07:23:30;;;;;;;10.63;7.72;;;;;;;8.99;100.00;100615.91;4943379;29;20154;-90
2023/04/16 07:26:24;;;;;;;11.55;7.78;;;;;;;8.92;100.00;100617.06;4923530;29;20047;-90
2023/04/16 07:29:16;;;;;;;11.13;8.13;;;;;;;8.98;100.00;100630.91;4941677;29;20051;-89
2023/04/16 07:31:56;;;;;;;10.35;8.02;;;;;;;9.04;100.00;100637.75;4949411;29;20142;-91
2023/04/16 07:34:26;;;;;;;14.35;9.40;;;;;;;8.95;100.00;100624.88;4938952;29;20611;-91
2023/04/16 07:36:54;;;;;;;13.15;8.65;;;;;;;8.71;100.00;100585.25;4938688;29;20067;-91
2023/04/16 07:39:39;;;;;;;11.68;8.15;;;;;;;8.99;100.00;100632.63;4962035;28;20117;-90
2023/04/16 07:42:08;;;;;;;11.57;8.55;;;;;;;8.77;100.00;100592.94;4977471;28;20039;-90
2023/04/16 07:45:02;;;;;;;11.68;8.80;;;;;;;9.09;100.00;100644.59;4978961;28;20065;-91
2023/04/16 07:48:06;;;;;;;12.23;8.90;;;;;;;8.96;100.00;100623.97;4997589;28;20186;-91
2023/04/16 07:51:04;;;;;;;12.37;8.93;;;;;;;9.13;100.00;100650.59;4991733;28;20050;-92
2023/04/16 07:54:02;;;;;;;13.82;9.15;;;;;;;8.81;100.00;100577.84;4998963;28;20465;-93
2023/04/16 07:57:11;;;;;;;11.93;8.82;;;;;;;8.98;100.00;100603.63;4978500;28;20138;-92
2023/04/16 08:00:04;;;;;;;11.73;9.10;;;;;;;9.31;100.00;100630.56;5010424;28;20046;-91
2023/04/16 08:02:46;;;;;;;12.98;9.88;;;;;;;9.47;100.00;100643.13;4997596;28;20134;-91
2023/04/16 08:05:17;;;;;;;12.48;9.63;;;;;;;9.38;100.00;100619.72;5003561;28;20046;-92
2023/04/16 08:07:45;;;;;;;14.95;9.68;;;;;;;9.45;100.00;100629.09;4989153;28;20078;-90
2023/04/16 08:10:43;;;;;;;14.32;9.77;;;;;;;9.32;100.00;100619.94;5011433;28;20149;-91
2023/04/16 08:13:44;;;;;;;17.35;10.60;;;;;;;9.49;100.00;100651.88;4968313;28;20094;-91
2023/04/16 08:16:52;;;;;;;13.35;9.60;;;;;;;9.26;100.00;100606.09;4996472;28;20049;-91
2023/04/16 08:19:53;;;;;;;13.13;9.65;;;;;;;9.14;100.00;100588.91;5001705;28;20046;-91
2023/04/16 08:22:28;;;;;;;12.38;9.35;;;;;;;9.70;100.00;100694.28;5011558;28;20034;-91
2023/04/16 08:25:20;;;;;;;13.38;9.82;;;;;;;9.52;100.00;100655.31;4996583;28;20071;-92
2023/04/16 08:28:17;;;;;;;11.82;9.45;;;;;;;9.34;100.00;100614.59;4988962;28;20050;-90
2023/04/16 08:31:32;;;;;;;13.18;9.95;;;;;;;9.78;100.00;100686.88;4938500;29;20044;-90
2023/04/16 08:34:20;;;;;;;14.27;9.65;;;;;;;9.72;100.00;100687.16;4945402;29;20129;-89
2023/04/16 08:37:27;;;;;;;15.45;10.02;;;;;;;9.81;100.00;100692.06;4965209;28;20078;-92
2023/04/16 08:40:22;;;;;;;16.42;10.13;;;;;;;9.71;100.00;100670.41;4922119;29;20063;-91
2023/04/16 08:43:31;;;;;;;14.18;10.32;;;;;;;9.69;100.00;100666.97;4933779;29;20546;-91
2023/04/16 08:46:19;;;;;;;12.23;9.63;;;;;;;9.68;100.00;100653.81;4927036;29;20136;-91
2023/04/16 09:00:01;;;;;;;15.70;11.10;;;;;;;10.08;100.00;100688.31;5136035;22;25718995;-90
2023/04/16 09:02:52;;;;;;;;;;;;;;;10.22;100.00;100709.00;6300054;22;20050;-91
2023/04/16 09:05:37;;;;;;;15.05;10.68;;;;;;;9.93;100.00;100661.63;6281427;22;19915;-93
2023/04/16 09:08:06;;;;;;;16.10;10.43;;;;;;;10.23;100.00;100712.50;6276887;22;20022;-91
2023/04/16 09:10:35;;;;;;;14.93;10.90;;;;;;;10.22;100.00;100714.28;6278781;22;20012;-91
2023/04/16 09:13:08;;;;;;;14.53;10.83;;;;;;;10.02;100.00;100662.13;6281401;22;20007;-94
2023/04/16 09:15:40;;;;;;;16.17;10.88;;;;;;;10.03;100.00;100660.34;6260841;22;20018;-90
2023/04/16 09:18:24;;;;;;;15.60;10.90;;;;;;;10.04;100.00;100655.00;6263892;22;20080;-92
2023/04/16 09:21:28;;;;;;;15.20;10.60;;;;;;;10.41;100.00;100728.47;6242410;22;20014;-91
2023/04/16 09:24:01;;;;;;;14.35;10.48;;;;;;;10.14;100.00;100674.00;6281157;22;20053;-91
2023/04/16 09:26:44;;;;;;;15.98;10.65;;;;;;;10.36;100.00;100705.78;6283657;22;20015;-90
2023/04/16 09:29:36;;;;;;;14.88;10.70;;;;;;;10.47;100.00;100732.66;6279601;22;20039;-90
2023/04/16 09:32:11;;;;;;;15.07;10.50;;;;;;;10.52;100.00;100728.06;6307148;22;20016;-91
2023/04/16 09:34:56;;;;;;;15.13;10.45;;;;;;;10.58;100.00;100725.13;6304797;22;20012;-90
2023/04/16 09:37:30;;;;;;;15.18;10.43;;;;;;;10.30;100.00;100679.53;6305901;22;20027;-89
2023/04/16 09:40:08;;;;;;;13.40;9.82;;;;;;;10.35;100.00;100681.09;6308169;22;20019;-90
2023/04/16 09:42:39;;;;;;;16.23;11.10;;;;;;;10.58;100.00;100717.19;6308182;22;20003;-90
2023/04/16 09:45:16;;;;;;;15.45;10.43;;;;;;;10.53;100.00;100703.28;6306560;22;20011;-92
2023/04/16 09:47:46;;;;;;;13.70;9.60;;;;;;;10.50;100.00;100698.13;6305379;22;20023;-90
2023/04/16 09:50:22;;;;;;;14.05;10.20;;;;;;;10.77;100.00;100741.97;6307501;22;20032;-90
2023/04/16 09:53:03;;;;;;;14.63;9.98;;;;;;;10.63;100.00;100714.34;6307458;22;20023;-92
2023/04/16 09:55:34;;;;;;;13.48;10.00;;;;;;;10.79;100.00;100732.19;6273524;22;20508;-91
2023/04/16 09:58:03;;;;;;;13.75;10.13;;;;;;;10.81;100.00;100737.41;6296104;22;20090;-89
2023/04/16 10:00:54;;;;;;;13.48;9.88;;;;;;;10.83;100.00;100747.03;6274796;22;20023;-92
2023/04/16 10:03:58;;;;;;;15.32;9.75;;;;;;;10.94;100.00;100758.94;6297214;22;20095;-92
2023/04/16 10:06:33;;;;;;;15.15;9.82;;;;;;;10.73;100.00;100723.63;6295292;22;20015;-92
2023/04/16 10:09:10;;;;;;;13.32;9.75;;;;;;;10.96;100.00;100763.25;6270661;22;20365;-91
2023/04/16 10:11:48;;;;;;;14.65;9.75;;;;;;;10.74;100.00;100715.63;6297155;22;20023;-92
2023/04/16 10:14:34;;;;;;;13.10;9.23;;;;;;;10.99;100.00;100749.88;6295703;22;20012;-91
2023/04/16 10:17:35;;;;;;;12.82;9.13;;;;;;;11.06;100.00;100766.38;6294376;22;20034;-92
2023/04/16 10:20:04;;;;;;;13.38;9.50;;;;;;;11.08;100.00;100772.47;6289067;22;20099;-94
2023/04/16 10:22:52;;;;;;;11.48;8.82;;;;;;;10.58;100.00;100695.13;6290796;22;20592;-90
2023/04/16 10:25:37;;;;;;;14.13;9.57;;;;;;;10.81;100.00;100742.72;6289341;22;20051;-91
2023/04/16 10:28:14;;;;;;;12.90;9.82;;;;;;;10.93;100.00;100760.72;6289534;22;20024;-93
2023/04/16 10:30:58;;;;;;;14.15;9.93;;;;;;;11.14;100.00;100772.22;6274238;22;20038;-92
2023/04/16 10:33:33;;;;;;;13.40;8.88;;;;;;;10.99;100.00;100746.38;6287438;22;20070;-90
2023/04/16 10:36:26;;;;;;;12.13;8.85;;;;;;;10.77;100.00;100726.09;6287164;22;20054;-92
2023/04/16 10:39:13;;;;;;;11.93;9.18;;;;;;;11.01;100.00;100774.53;6286695;22;20092;-91
2023/04/16 10:42:10;;;;;;;13.30;9.77;;;;;;;11.09;100.00;100782.13;6284319;22;20019;-91
2023/04/16 10:45:36;;;;;;;13.13;9.07;;;;;;;10.70;100.00;100724.63;6285344;22;20320;-93
2023/04/16 10:48:31;;;;;;;13.98;9.10;;;;;;;11.13;100.00;100786.38;6287147;22;20309;-91
2023/04/16 10:51:34;;;;;;;13.70;9.70;;;;;;;11.09;100.00;100777.69;6289044;22;20077;-91
2023/04/16 10:54:11;;;;;;;13.98;9.98;;;;;;;10.98;100.00;100760.56;6286343;22;20023;-93
2023/04/16 10:57:09;;;;;;;14.75;9.98;;;;;;;10.89;100.00;100745.88;6290196;22;20016;-92
2023/04/16 10:59:44;;;;;;;14.45;10.35;;;;;;;11.00;100.00;100756.06;6295453;22;20023;-90
2023/04/16 11:02:31;;;;;;;14.52;10.73;;;;;;;11.06;100.00;100769.88;6301896;22;20008;-91
2023/04/16 11:05:00;;;;;;;13.88;10.23;;;;;;;11.03;100.00;100754.09;6297668;22;20016;-93
2023/04/16 11:07:47;;;;;;;14.82;10.35;;;;;;;11.23;100.00;100793.00;6291493;22;20023;-91
2023/04/16 11:10:48;;;;;;;13.93;10.73;;;;;;;11.10;100.00;100771.47;6292248;22;20039;-90
2023/04/16 11:14:23;;;;;;;16.15;11.07;;;;;;;11.19;100.00;100797.56;6261603;23;20058;-92
2023/04/16 11:17:32;;;;;;;17.13;11.13;;;;;;;10.99;100.00;100764.94;6219085;23;20016;-93
2023/04/16 11:20:44;;;;;;;18.67;12.15;;;;;;;11.16;100.00;100796.88;6239037;23;20016;-92
2023/04/16 11:23:26;;;;;;;15.73;11.45;;;;;;;10.99;100.00;100767.56;6234951;23;20030;-92
2023/04/16 11:26:28;;;;;;;15.98;11.93;;;;;;;10.85;100.00;100753.13;6233311;23;20095;-91
2023/04/16 11:28:59;;;;;;;14.73;10.93;;;;;;;11.07;100.00;100784.00;6231155;23;20167;-92
2023/04/16 11:31:41;;;;;;;18.27;12.15;;;;;;;11.10;100.00;100773.25;6262674;23;20012;-92
2023/04/16 11:34:20;;;;;;;17.23;12.05;;;;;;;11.28;100.00;100800.78;6216800;23;20004;-91
2023/04/16 11:36:55;;;;;;;15.45;12.10;;;;;;;10.97;100.00;100742.94;6231353;23;20012;-93
2023/04/16 11:39:51;;;;;;;16.52;11.80;;;;;;;11.33;100.00;100799.66;6198877;23;20104;-94
2023/04/16 11:42:21;;;;;;;16.83;12.48;;;;;;;11.38;100.00;100796.78;6225174;23;20020;-91
2023/04/16 11:45:12;;;;;;;17.10;12.45;;;;;;;11.42;100.00;100793.94;6236542;23;20023;-92
2023/04/16 11:48:00;;;;;;;17.42;12.30;;;;;;;11.51;100.00;100804.13;6252385;22;20012;-91
2023/04/16 11:50:31;;;;;;;19.17;13.18;;;;;;;11.18;100.00;100745.47;6262676;22;20026;-90
2023/04/16 11:53:09;;;;;;;19.90;12.30;;;;;;;11.27;100.00;100764.59;6263262;22;20016;-91
2023/04/16 11:55:58;;;;;;;17.35;12.93;;;;;;;11.51;100.00;100801.47;6268700;22;20015;-93
2023/04/16 11:58:35;;;;;;;16.42;12.02;;;;;;;11.36;100.00;100778.28;6295248;22;20026;-91
2023/04/16 12:01:09;;;;;;;17.90;12.35;;;;;;;11.51;100.00;100813.88;6265476;22;20027;-92
2023/04/16 12:04:37;;;;;;;17.48;12.45;;;;;;;11.51;100.00;100804.13;6246022;22;20035;-94
2023/04/16 12:07:13;;;;;;;17.77;12.32;;;;;;;11.49;100.00;100800.66;6291807;22;20094;-92
2023/04/16 12:09:49;;;;;;;19.95;13.20;;;;;;;11.56;100.00;100815.41;6191941;22;20027;-92
2023/04/16 12:12:40;;;;;;;16.27;12.55;;;;;;;11.55;100.00;100803.06;6268742;22;20023;-93